Time;durP1;ratioP1;P1;durP2;ratioP2;P2;SDS_P1;SDS_P2;PMS_P1;PMS_P2;Temp;Humidity;BMP_temperature;BMP_pressure;BME280_temperature;BME280_humidity;BME280_pressure;Samples;Min_cycle;Max_cycle;Signal;HPM_P1;HPM_P2
2021/12/20 00:00:36;;;;;;;18.50;16.70;;;;;;;0.23;100.00;98695.75;2079438;28;20222;-73
2021/12/20 00:01:38;;;;;;;18.58;16.70;;;;;;;0.34;100.00;98688.84;2079080;28;20230;-73
2021/12/20 00:02:40;;;;;;;18.30;16.50;;;;;;;0.31;100.00;98689.31;2080058;28;20235;-73
2021/12/20 00:03:41;;;;;;;18.90;17.10;;;;;;;0.28;100.00;98679.31;2079432;28;20224;-72
2021/12/20 00:04:46;;;;;;;18.67;16.97;;;;;;;0.23;100.00;98676.59;2079301;28;20266;-74
2021/12/20 00:05:48;;;;;;;18.38;16.65;;;;;;;0.25;100.00;98682.41;2079460;28;20219;-73
2021/12/20 00:06:49;;;;;;;18.02;16.38;;;;;;;0.22;100.00;98685.50;2079431;28;20224;-73
2021/12/20 00:07:51;;;;;;;19.25;17.20;;;;;;;0.19;100.00;98671.03;2079413;28;20701;-73
2021/12/20 00:08:52;;;;;;;18.58;16.73;;;;;;;0.24;100.00;98684.22;2079063;28;20238;-73
2021/12/20 00:09:54;;;;;;;18.53;16.83;;;;;;;0.25;100.00;98685.03;2079277;28;20238;-73
2021/12/20 00:10:55;;;;;;;17.90;16.25;;;;;;;0.24;100.00;98689.47;2071348;28;20641;-72
2021/12/20 00:11:57;;;;;;;18.88;16.63;;;;;;;0.26;100.00;98692.69;2079146;28;20223;-73
2021/12/20 00:13:00;;;;;;;18.48;16.73;;;;;;;0.29;100.00;98699.28;2080157;28;20223;-73
2021/12/20 00:14:02;;;;;;;19.35;17.38;;;;;;;0.27;100.00;98693.47;2080171;28;20273;-73
2021/12/20 00:15:06;;;;;;;19.05;17.10;;;;;;;0.32;100.00;98696.16;2080097;28;20310;-73
2021/12/20 00:16:06;;;;;;;18.58;16.88;;;;;;;0.35;100.00;98697.50;2071115;28;20220;-75
2021/12/20 00:17:08;;;;;;;18.97;16.70;;;;;;;0.37;100.00;98701.50;2071130;28;20228;-73
2021/12/20 00:18:09;;;;;;;17.55;15.77;;;;;;;0.40;100.00;98692.34;2078615;28;20231;-73
2021/12/20 00:19:11;;;;;;;17.90;16.17;;;;;;;0.47;100.00;98695.63;2080093;28;20223;-73
2021/12/20 00:20:17;;;;;;;17.98;16.30;;;;;;;0.47;100.00;98706.91;2079315;28;20269;-73
2021/12/20 00:21:21;;;;;;;18.60;17.00;;;;;;;0.44;100.00;98704.78;2071711;28;20220;-73
2021/12/20 00:22:23;;;;;;;17.45;15.70;;;;;;;0.44;100.00;98710.00;2087534;28;20234;-73
2021/12/20 00:23:24;;;;;;;18.27;16.67;;;;;;;0.39;100.00;98696.81;2095811;28;20230;-73
2021/12/20 00:24:25;;;;;;;19.73;17.75;;;;;;;0.37;100.00;98709.38;2079730;28;20462;-73
2021/12/20 00:25:27;;;;;;;18.33;16.63;;;;;;;0.31;100.00;98702.44;2080007;28;20223;-73
2021/12/20 00:26:28;;;;;;;22.80;16.70;;;;;;;0.37;100.00;98719.06;2079189;28;20258;-73
2021/12/20 00:27:31;;;;;;;19.02;17.08;;;;;;;0.44;100.00;98704.78;2079196;28;20310;-72
2021/12/20 00:28:32;;;;;;;20.13;17.38;;;;;;;0.37;100.00;98713.81;2095009;28;20226;-73
2021/12/20 00:29:34;;;;;;;18.93;17.27;;;;;;;0.33;100.00;98704.81;2087491;28;20313;-73
2021/12/20 00:30:35;;;;;;;18.88;16.88;;;;;;;0.26;100.00;98703.16;2079054;28;20310;-73
2021/12/20 00:31:37;;;;;;;18.85;17.17;;;;;;;0.32;100.00;98724.22;2079207;28;20219;-73
2021/12/20 00:32:39;;;;;;;18.38;16.60;;;;;;;0.35;100.00;98708.81;2086885;28;20235;-73
2021/12/20 00:33:41;;;;;;;20.20;17.27;;;;;;;0.34;100.00;98715.06;2087330;28;20226;-73
2021/12/20 00:34:42;;;;;;;19.33;17.30;;;;;;;0.32;100.00;98716.34;2079952;28;22012;-73
2021/12/20 00:35:46;;;;;;;18.25;16.52;;;;;;;0.33;100.00;98718.75;2079969;28;20220;-73
2021/12/20 00:36:56;;;;;;;18.58;16.60;;;;;;;0.36;100.00;98707.78;2079133;28;20219;-72
2021/12/20 00:40:38;;;;;;;20.42;16.70;;;;;;;0.37;100.00;98719.88;2084945;28;20226;-73
2021/12/20 00:41:40;;;;;;;18.45;16.23;;;;;;;0.38;100.00;98725.91;2078955;28;20250;-73
2021/12/20 00:42:42;;;;;;;20.15;16.23;;;;;;;0.41;100.00;98726.22;2079151;28;20231;-73
2021/12/20 00:43:44;;;;;;;19.00;17.23;;;;;;;0.46;100.00;98712.41;2077951;28;20267;-73
2021/12/20 00:44:45;;;;;;;18.75;16.88;;;;;;;0.42;100.00;98717.31;2070929;28;20778;-73
2021/12/20 00:45:47;;;;;;;19.73;17.37;;;;;;;0.41;100.00;98720.97;2070944;28;20633;-73
2021/12/20 00:46:47;;;;;;;18.65;16.95;;;;;;;0.39;100.00;98720.41;2078669;28;20251;-73
2021/12/20 00:47:51;;;;;;;18.23;16.57;;;;;;;0.37;100.00;98709.38;2079158;28;20236;-73
2021/12/20 00:48:52;;;;;;;18.95;17.10;;;;;;;0.40;100.00;98714.13;2070580;28;20262;-74
2021/12/20 00:49:54;;;;;;;20.75;16.77;;;;;;;0.42;100.00;98712.06;2079095;28;20235;-73
2021/12/20 00:50:56;;;;;;;22.60;17.00;;;;;;;0.41;100.00;98704.44;2079039;28;20253;-73
2021/12/20 00:51:58;;;;;;;20.10;18.05;;;;;;;0.38;100.00;98721.47;2079047;28;20231;-74
2021/12/20 00:52:59;;;;;;;20.10;18.10;;;;;;;0.34;100.00;98715.06;2079214;28;20229;-73
2021/12/20 00:54:01;;;;;;;18.90;17.00;;;;;;;0.34;100.00;98724.78;2078511;28;20230;-73
2021/12/20 00:55:02;;;;;;;22.67;17.55;;;;;;;0.32;100.00;98722.41;2078988;28;20631;-73
2021/12/20 00:56:06;;;;;;;19.77;17.75;;;;;;;0.31;100.00;98720.81;2078614;28;20302;-73
2021/12/20 00:57:06;;;;;;;19.48;17.55;;;;;;;0.34;100.00;98730.81;2070267;28;20240;-73
2021/12/20 00:58:09;;;;;;;20.00;17.67;;;;;;;0.33;100.00;98725.81;2078493;28;20227;-73
2021/12/20 00:59:09;;;;;;;19.60;17.80;;;;;;;0.42;100.00;98724.38;2087049;28;20656;-73
2021/12/20 01:00:12;;;;;;;20.27;17.67;;;;;;;0.43;100.00;98729.41;2078824;28;20227;-73
2021/12/20 01:01:13;;;;;;;21.85;17.48;;;;;;;0.38;100.00;98721.47;2079118;28;20253;-73
2021/12/20 01:02:16;;;;;;;20.73;18.30;;;;;;;0.34;100.00;98730.03;2078735;28;20227;-73
2021/12/20 01:03:18;;;;;;;21.63;18.65;;;;;;;0.29;100.00;98725.50;2078847;28;20230;-73
2021/12/20 01:04:20;;;;;;;19.92;17.83;;;;;;;0.24;100.00;98720.94;2078860;28;20231;-73
2021/12/20 01:05:22;;;;;;;19.52;17.60;;;;;;;0.22;100.00;98730.09;2078986;28;20705;-73
2021/12/20 01:06:25;;;;;;;20.55;18.45;;;;;;;0.22;100.00;98737.97;2079102;28;20569;-73
2021/12/20 01:07:28;;;;;;;23.60;18.70;;;;;;;0.22;100.00;98732.72;2078578;28;20586;-73
2021/12/20 01:08:34;;;;;;;21.38;19.15;;;;;;;0.19;100.00;98728.75;2078911;28;20243;-73
2021/12/20 01:09:36;;;;;;;23.52;19.10;;;;;;;0.21;100.00;98728.50;2078833;28;20302;-73
2021/12/20 01:10:43;;;;;;;24.70;19.60;;;;;;;0.17;100.00;98725.56;2078685;28;20269;-73
2021/12/20 01:11:50;;;;;;;22.00;19.58;;;;;;;0.14;100.00;98720.78;2078819;28;20257;-73
2021/12/20 01:12:54;;;;;;;24.23;19.17;;;;;;;0.16;100.00;98728.41;2079051;28;20222;-73
2021/12/20 01:13:57;;;;;;;27.08;19.80;;;;;;;0.15;100.00;98722.38;2078487;28;20247;-73
2021/12/20 01:15:00;;;;;;;27.75;20.38;;;;;;;0.20;100.00;98732.19;2078704;28;20609;-73
2021/12/20 01:16:05;;;;;;;25.42;20.85;;;;;;;0.12;100.00;98732.56;2078967;28;20273;-73
2021/12/20 01:17:07;;;;;;;24.85;20.90;;;;;;;0.11;100.00;98736.22;2078823;28;20325;-73
2021/12/20 01:18:08;;;;;;;22.52;20.08;;;;;;;0.08;100.00;98729.59;2078545;28;20578;-73
2021/12/20 01:19:10;;;;;;;26.57;20.70;;;;;;;0.11;100.00;98731.75;2078889;28;20289;-73
2021/12/20 01:20:12;;;;;;;24.42;20.98;;;;;;;0.07;100.00;98714.88;2078857;28;20605;-73
2021/12/20 01:21:13;;;;;;;31.92;22.42;;;;;;;0.09;100.00;98733.00;2078961;28;20215;-73
2021/12/20 01:22:18;;;;;;;28.15;22.42;;;;;;;0.04;100.00;98730.31;2086923;28;20221;-72
2021/12/20 01:23:21;;;;;;;26.67;22.05;;;;;;;0.06;100.00;98731.66;2078842;28;20228;-72
2021/12/20 01:24:22;;;;;;;27.08;22.30;;;;;;;0.05;100.00;98735.31;2078359;28;20231;-73
2021/12/20 01:25:24;;;;;;;31.03;22.07;;;;;;;0.03;100.00;98733.97;2078821;28;20314;-72
2021/12/20 01:26:25;;;;;;;29.90;23.63;;;;;;;0.05;100.00;98734.53;2078625;28;20650;-72
2021/12/20 01:27:27;;;;;;;27.60;23.10;;;;;;;0.04;100.00;98738.97;2078760;28;20266;-73
2021/12/20 01:28:29;;;;;;;33.60;23.73;;;;;;;0.05;100.00;98747.63;2079440;28;20224;-73
2021/12/20 01:29:31;;;;;;;31.58;22.85;;;;;;;0.02;100.00;98748.91;2079313;28;20219;-73
2021/12/20 01:30:37;;;;;;;27.25;23.00;;;;;;;-0.02;100.00;98748.56;2078866;28;20231;-73
2021/12/20 01:31:38;;;;;;;29.02;23.92;;;;;;;-0.06;100.00;98744.03;2078443;28;20252;-72
2021/12/20 01:32:40;;;;;;;34.53;23.73;;;;;;;-0.07;100.00;98738.00;2086955;28;20843;-73
2021/12/20 01:33:42;;;;;;;31.17;23.92;;;;;;;-0.08;100.00;98744.28;2086940;28;20279;-72
2021/12/20 01:34:42;;;;;;;30.33;22.45;;;;;;;-0.08;100.00;98738.25;2078692;28;20231;-73
2021/12/20 01:35:44;;;;;;;30.47;24.67;;;;;;;-0.12;100.00;98732.66;2070479;28;20262;-73
2021/12/20 01:36:45;;;;;;;28.67;23.38;;;;;;;-0.12;100.00;98740.53;2077911;28;20227;-72
2021/12/20 01:37:49;;;;;;;28.85;24.17;;;;;;;-0.08;100.00;98733.00;2079297;28;20236;-73
2021/12/20 01:38:51;;;;;;;34.35;23.88;;;;;;;-0.09;100.00;98737.44;2078753;28;20702;-73
2021/12/20 01:39:53;;;;;;;28.73;23.25;;;;;;;-0.11;100.00;98734.25;2070293;28;20255;-75
2021/12/20 01:40:54;;;;;;;28.67;22.50;;;;;;;-0.11;100.00;98742.09;2078680;28;20231;-73
2021/12/20 01:41:55;;;;;;;30.05;23.42;;;;;;;-0.12;100.00;98737.91;2078618;28;20759;-72
2021/12/20 01:42:58;;;;;;;31.07;24.20;;;;;;;-0.08;100.00;98733.78;2078640;28;20609;-72
2021/12/20 01:43:59;;;;;;;29.52;22.60;;;;;;;-0.08;100.00;98736.41;2078621;28;20224;-73
2021/12/20 01:45:01;;;;;;;30.38;22.83;;;;;;;-0.05;100.00;98730.69;2079396;28;20219;-73
2021/12/20 01:46:03;;;;;;;30.67;23.42;;;;;;;-0.10;100.00;98730.59;2078569;28;20677;-72
2021/12/20 01:47:04;;;;;;;30.92;23.85;;;;;;;-0.09;100.00;98732.19;2070417;28;20274;-73
2021/12/20 01:48:09;;;;;;;33.60;23.45;;;;;;;-0.06;100.00;98731.72;2078604;28;20219;-72
2021/12/20 01:49:13;;;;;;;29.70;23.98;;;;;;;-0.10;100.00;98732.41;2094560;28;20230;-73
2021/12/20 01:50:21;;;;;;;28.90;23.20;;;;;;;-0.13;100.00;98733.69;2094334;28;20222;-73
2021/12/20 01:51:44;;;;;;;27.73;22.45;;;;;;;-0.16;100.00;98736.78;2078086;28;20224;-74
2021/12/20 01:52:47;;;;;;;28.25;22.70;;;;;;;-0.12;100.00;98735.28;2078179;28;20223;-73
2021/12/20 01:53:49;;;;;;;28.45;22.17;;;;;;;-0.13;100.00;98725.81;2078655;28;20293;-73
2021/12/20 01:54:51;;;;;;;25.98;22.58;;;;;;;-0.14;100.00;98731.31;2078456;28;20229;-73
2021/12/20 01:55:53;;;;;;;29.58;23.30;;;;;;;-0.16;100.00;98736.00;2078639;28;20633;-72
2021/12/20 01:56:55;;;;;;;27.10;22.75;;;;;;;-0.15;100.00;98735.75;2078988;28;20231;-73
2021/12/20 01:57:56;;;;;;;28.92;23.17;;;;;;;-0.14;100.00;98741.78;2079319;28;20738;-73
2021/12/20 01:59:02;;;;;;;30.90;23.27;;;;;;;-0.16;100.00;98741.25;2078533;28;20238;-73
2021/12/20 02:00:05;;;;;;;27.90;22.60;;;;;;;-0.14;100.00;98737.34;2078555;28;20239;-73
2021/12/20 02:01:21;;;;;;;26.50;22.75;;;;;;;-0.11;100.00;98742.09;2078519;28;20227;-72
2021/12/20 02:02:22;;;;;;;31.48;23.00;;;;;;;-0.09;100.00;98737.44;2078225;28;20597;-75
2021/12/20 02:03:24;;;;;;;26.73;22.98;;;;;;;-0.11;100.00;98744.72;2079217;28;20223;-73
2021/12/20 02:04:28;;;;;;;29.92;23.35;;;;;;;-0.12;100.00;98742.34;2078337;28;20355;-73
2021/12/20 02:05:48;;;;;;;32.63;22.58;;;;;;;-0.12;100.00;98737.91;2086551;28;20306;-73
2021/12/20 02:06:50;;;;;;;31.15;23.83;;;;;;;-0.13;100.00;98738.94;2092182;28;20221;-72
2021/12/20 02:07:56;;;;;;;31.35;24.25;;;;;;;-0.13;100.00;98738.13;2078476;28;20710;-72
2021/12/20 02:09:01;;;;;;;32.40;23.67;;;;;;;-0.14;100.00;98745.22;2078298;28;20253;-72
2021/12/20 02:10:03;;;;;;;31.23;24.30;;;;;;;-0.16;100.00;98755.13;2078722;28;20622;-72
2021/12/20 02:11:10;;;;;;;29.50;24.38;;;;;;;-0.17;100.00;98735.19;2070294;28;20278;-72
2021/12/20 02:12:13;;;;;;;32.97;24.38;;;;;;;-0.18;100.00;98733.59;2078534;28;20297;-72
2021/12/20 02:13:15;;;;;;;31.67;24.38;;;;;;;-0.17;100.00;98740.44;2077995;28;20694;-73
2021/12/20 02:14:18;;;;;;;33.42;23.60;;;;;;;-0.17;100.00;98740.44;2078665;28;20268;-72
2021/12/20 02:15:19;;;;;;;29.45;23.88;;;;;;;-0.15;100.00;98738.38;2078439;28;20286;-72
2021/12/20 02:16:21;;;;;;;29.05;24.40;;;;;;;-0.14;100.00;98739.97;2078413;28;20220;-73
2021/12/20 02:17:22;;;;;;;26.73;23.35;;;;;;;-0.15;100.00;98743.63;2078824;28;20227;-73
2021/12/20 02:18:24;;;;;;;33.20;25.27;;;;;;;-0.13;100.00;98736.31;2079157;28;20228;-74
2021/12/20 02:19:28;;;;;;;32.08;24.40;;;;;;;-0.12;100.00;98745.75;2079104;28;20226;-73
2021/12/20 02:20:32;;;;;;;29.90;24.15;;;;;;;-0.15;100.00;98756.72;2078182;28;20226;-72
2021/12/20 02:21:34;;;;;;;27.92;23.67;;;;;;;-0.16;100.00;98742.03;2070475;28;20737;-73
2021/12/20 02:22:38;;;;;;;28.40;23.67;;;;;;;-0.15;100.00;98741.00;2078492;28;20223;-72
2021/12/20 02:23:40;;;;;;;31.67;23.85;;;;;;;-0.15;100.00;98741.00;2078009;28;20223;-73
2021/12/20 02:24:40;;;;;;;30.83;24.08;;;;;;;-0.12;100.00;98740.53;2070181;28;20228;-72
2021/12/20 02:25:43;;;;;;;29.63;24.90;;;;;;;-0.11;100.00;98746.56;2076738;28;20239;-73
2021/12/20 02:26:44;;;;;;;31.60;23.85;;;;;;;-0.05;100.00;98746.41;2086395;28;20653;-73
2021/12/20 02:27:46;;;;;;;30.80;23.37;;;;;;;-0.08;100.00;98739.03;2086384;28;20643;-73
2021/12/20 02:28:49;;;;;;;26.88;23.80;;;;;;;-0.07;100.00;98739.84;2078255;28;20682;-73
2021/12/20 02:30:03;;;;;;;26.27;23.30;;;;;;;-0.06;100.00;98747.47;2078402;28;20231;-73
2021/12/20 02:37:16;;;;;;;31.13;23.88;;;;;;;-0.07;100.00;98734.59;2035516;29;20313;-72
2021/12/20 02:38:17;;;;;;;28.27;24.17;;;;;;;-0.06;100.00;98742.22;2045007;28;20703;-73
2021/12/20 02:39:19;;;;;;;29.63;24.23;;;;;;;-0.07;100.00;98745.88;2046953;28;20615;-73
2021/12/20 02:40:22;;;;;;;31.75;23.98;;;;;;;-0.09;100.00;98737.44;2079070;28;20223;-73
2021/12/20 02:41:27;;;;;;;29.25;24.75;;;;;;;-0.05;100.00;98741.19;2078656;28;20230;-73
2021/12/20 02:42:35;;;;;;;31.95;24.73;;;;;;;-0.01;100.00;98744.91;2078039;28;20776;-73
2021/12/20 02:43:40;;;;;;;27.35;23.27;;;;;;;0.01;100.00;98741.28;2078181;28;20227;-73
2021/12/20 02:44:46;;;;;;;30.70;23.38;;;;;;;-0.02;100.00;98745.94;2077968;28;20227;-73
2021/12/20 02:45:48;;;;;;;33.80;24.40;;;;;;;-0.07;100.00;98743.25;2078083;28;20223;-73
2021/12/20 02:47:04;;;;;;;29.92;22.85;;;;;;;-0.02;100.00;98743.31;2069619;28;20306;-73
2021/12/20 02:48:05;;;;;;;33.97;23.67;;;;;;;0.04;100.00;98743.44;2079991;28;20223;-73
2021/12/20 02:49:08;;;;;;;29.10;23.03;;;;;;;0.06;100.00;98750.03;2086555;28;20218;-73
2021/12/20 02:50:11;;;;;;;28.77;23.45;;;;;;;0.05;100.00;98751.06;2077713;28;20223;-73
2021/12/20 02:51:11;;;;;;;34.03;24.10;;;;;;;0.02;100.00;98748.91;2078281;28;21384;-73
2021/12/20 02:52:14;;;;;;;27.57;24.27;;;;;;;0.08;100.00;98747.16;2078077;28;20658;-73
2021/12/20 02:53:17;;;;;;;30.38;23.48;;;;;;;0.09;100.00;98744.31;2078277;28;20289;-74
2021/12/20 02:54:25;;;;;;;28.73;23.52;;;;;;;0.06;100.00;98755.25;2079056;28;20289;-73
2021/12/20 02:55:27;;;;;;;27.80;23.30;;;;;;;0.03;100.00;98750.50;2077738;28;20231;-73
2021/12/20 02:56:27;;;;;;;29.83;23.58;;;;;;;0.02;100.00;98748.13;2078221;28;20227;-74
2021/12/20 02:57:29;;;;;;;28.70;24.80;;;;;;;0.02;100.00;98748.91;2078729;28;20697;-73
2021/12/20 02:58:30;;;;;;;32.38;25.00;;;;;;;0.02;100.00;98750.75;2086185;28;20317;-73
2021/12/20 02:59:32;;;;;;;26.67;23.57;;;;;;;0.01;100.00;98746.53;2086311;28;20223;-74
2021/12/20 03:00:34;;;;;;;29.00;23.92;;;;;;;0.04;100.00;98751.28;2078162;28;20739;-73
2021/12/20 03:01:38;;;;;;;24.90;22.27;;;;;;;0.05;100.00;98758.13;2078104;28;20249;-74
2021/12/20 03:02:40;;;;;;;31.02;23.52;;;;;;;0.03;100.00;98750.50;2077793;28;20394;-73
2021/12/20 03:03:41;;;;;;;29.20;23.35;;;;;;;0.06;100.00;98757.09;2078206;28;20255;-74
2021/12/20 03:04:43;;;;;;;27.50;24.25;;;;;;;0.03;100.00;98747.09;2078074;28;20232;-73
2021/12/20 03:05:44;;;;;;;31.20;24.20;;;;;;;0.05;100.00;98747.63;2077991;28;20224;-73
2021/12/20 03:06:52;;;;;;;28.57;24.67;;;;;;;0.06;100.00;98749.22;2077306;28;20690;-73
2021/12/20 03:07:57;;;;;;;31.02;24.63;;;;;;;0.09;100.00;98746.13;2077131;28;20247;-74
2021/12/20 03:08:58;;;;;;;33.35;24.23;;;;;;;0.11;100.00;98754.56;2094530;28;20229;-74
2021/12/20 03:10:03;;;;;;;28.13;22.83;;;;;;;0.12;100.00;98759.56;2086096;28;20227;-74
2021/12/20 03:11:04;;;;;;;27.88;23.98;;;;;;;0.12;100.00;98749.09;2078475;28;20281;-74
2021/12/20 03:12:09;;;;;;;27.52;22.85;;;;;;;0.12;100.00;98756.16;2078115;28;20223;-73
2021/12/20 03:13:10;;;;;;;27.83;24.77;;;;;;;0.12;100.00;98756.16;2077714;28;20223;-73
2021/12/20 03:14:17;;;;;;;27.65;24.38;;;;;;;0.08;100.00;98752.41;2070003;28;20251;-73
2021/12/20 03:15:23;;;;;;;27.27;23.02;;;;;;;0.09;100.00;98738.25;2078122;28;20323;-73
2021/12/20 03:16:24;;;;;;;26.17;23.45;;;;;;;0.06;100.00;98749.22;2063549;28;20231;-73
2021/12/20 03:17:26;;;;;;;24.40;21.77;;;;;;;0.06;100.00;98744.78;2069899;28;20227;-74
2021/12/20 03:18:26;;;;;;;26.45;22.10;;;;;;;0.06;100.00;98750.03;2069992;28;20251;-73
2021/12/20 03:19:29;;;;;;;29.40;24.30;;;;;;;0.06;100.00;98754.47;2070568;28;20243;-73
2021/12/20 03:20:33;;;;;;;31.38;22.75;;;;;;;0.07;100.00;98740.31;2070634;28;20592;-73
2021/12/20 03:21:34;;;;;;;28.33;22.88;;;;;;;0.04;100.00;98746.03;2070644;28;20231;-74
2021/12/20 03:22:36;;;;;;;28.98;22.00;;;;;;;0.06;100.00;98746.59;2069955;28;20227;-73
2021/12/20 03:23:38;;;;;;;26.77;22.23;;;;;;;0.10;100.00;98760.84;2061553;28;20220;-74
2021/12/20 03:24:40;;;;;;;25.75;21.73;;;;;;;0.05;100.00;98745.81;2069996;28;20632;-73
2021/12/20 03:25:41;;;;;;;26.42;22.15;;;;;;;0.07;100.00;98748.97;2069823;28;20306;-73
2021/12/20 03:26:44;;;;;;;28.55;23.58;;;;;;;0.08;100.00;98752.41;2069853;28;20678;-73
2021/12/20 03:27:46;;;;;;;24.63;22.02;;;;;;;0.08;100.00;98749.78;2069733;28;20635;-73
2021/12/20 03:28:48;;;;;;;25.95;21.40;;;;;;;0.08;100.00;98752.41;2061826;28;20616;-73
2021/12/20 03:29:49;;;;;;;24.80;21.60;;;;;;;0.04;100.00;98746.03;2070030;28;20227;-73
2021/12/20 03:30:50;;;;;;;30.50;21.48;;;;;;;0.02;100.00;98738.41;2069913;28;20833;-73
2021/12/20 03:31:52;;;;;;;23.92;21.50;;;;;;;0.09;100.00;98743.50;2070618;28;20274;-73
2021/12/20 03:32:53;;;;;;;23.13;20.42;;;;;;;0.10;100.00;98745.91;2069453;28;20232;-74
2021/12/20 03:33:55;;;;;;;27.07;22.17;;;;;;;0.06;100.00;98743.97;2069755;28;20228;-74
2021/12/20 03:34:56;;;;;;;23.50;21.23;;;;;;;0.05;100.00;98760.75;2069824;28;20235;-74
2021/12/20 03:35:59;;;;;;;23.63;21.23;;;;;;;0.05;100.00;98745.81;2069710;28;20236;-73
2021/12/20 03:37:01;;;;;;;23.42;21.15;;;;;;;0.07;100.00;98746.38;2069858;28;20448;-73
2021/12/20 03:38:03;;;;;;;23.43;20.47;;;;;;;0.12;100.00;98756.16;2069835;28;20231;-73
2021/12/20 03:39:07;;;;;;;22.98;20.35;;;;;;;0.07;100.00;98750.81;2078081;28;20322;-74
2021/12/20 03:40:10;;;;;;;22.88;20.60;;;;;;;0.06;100.00;98751.84;2077249;28;20243;-74
2021/12/20 03:41:11;;;;;;;22.75;20.55;;;;;;;0.08;100.00;98745.31;2061932;28;20228;-73
2021/12/20 03:42:14;;;;;;;24.93;19.87;;;;;;;0.08;100.00;98739.28;2070036;28;20315;-74
2021/12/20 03:43:17;;;;;;;23.15;20.70;;;;;;;0.06;100.00;98749.22;2069732;28;20501;-73
2021/12/20 03:44:19;;;;;;;21.80;19.52;;;;;;;0.03;100.00;98733.97;2069999;28;20683;-74
2021/12/20 03:45:20;;;;;;;22.67;20.20;;;;;;;0.00;100.00;98745.72;2069863;28;20325;-74
2021/12/20 03:46:22;;;;;;;23.57;19.87;;;;;;;0.04;100.00;98740.81;2069584;28;20244;-73
2021/12/20 03:47:22;;;;;;;21.55;19.50;;;;;;;0.03;100.00;98740.00;2075710;28;20227;-73
2021/12/20 03:48:27;;;;;;;21.37;19.37;;;;;;;0.05;100.00;98747.63;2069674;28;20255;-73
2021/12/20 03:49:29;;;;;;;20.38;18.23;;;;;;;0.03;100.00;98734.75;2078028;28;20559;-72
2021/12/20 03:50:32;;;;;;;20.77;18.77;;;;;;;0.04;100.00;98727.69;2077925;28;20227;-73
2021/12/20 03:51:33;;;;;;;21.63;18.60;;;;;;;0.07;100.00;98732.44;2077928;28;20273;-72
2021/12/20 03:52:36;;;;;;;20.03;18.20;;;;;;;0.12;100.00;98737.81;2077934;28;20277;-73
2021/12/20 03:53:37;;;;;;;20.58;18.58;;;;;;;0.08;100.00;98737.47;2092225;28;20645;-74
2021/12/20 03:54:40;;;;;;;20.80;18.63;;;;;;;0.07;100.00;98724.59;2094370;28;20222;-73
2021/12/20 03:55:41;;;;;;;20.80;18.65;;;;;;;0.05;100.00;98722.19;2077830;28;20347;-73
2021/12/20 03:56:46;;;;;;;20.52;18.60;;;;;;;0.04;100.00;98723.25;2069668;28;20290;-73
2021/12/20 03:57:47;;;;;;;21.02;19.23;;;;;;;0.05;100.00;98710.91;2077797;28;20219;-73
2021/12/20 03:58:49;;;;;;;20.20;18.23;;;;;;;0.03;100.00;98713.78;2086127;28;20268;-73
2021/12/20 03:59:51;;;;;;;20.83;18.70;;;;;;;-0.06;100.00;98705.50;2086149;28;20226;-73
2021/12/20 04:00:53;;;;;;;20.38;18.25;;;;;;;-0.01;100.00;98708.19;2069581;28;20650;-74
2021/12/20 04:01:54;;;;;;;22.58;18.90;;;;;;;0.02;100.00;98712.19;2077915;28;20238;-73
2021/12/20 04:02:57;;;;;;;19.77;17.83;;;;;;;0.02;100.00;98717.44;2077852;28;20226;-73
2021/12/20 04:04:00;;;;;;;19.73;17.83;;;;;;;0.04;100.00;98719.81;2070305;28;20227;-72
2021/12/20 04:05:02;;;;;;;18.95;17.15;;;;;;;0.03;100.00;98713.78;2069900;28;20247;-74
2021/12/20 04:06:03;;;;;;;20.38;18.50;;;;;;;0.06;100.00;98728.25;2077744;28;20619;-73
2021/12/20 04:07:05;;;;;;;19.88;17.40;;;;;;;0.09;100.00;98727.75;2085668;28;20227;-72
2021/12/20 04:08:06;;;;;;;19.10;17.23;;;;;;;0.07;100.00;98719.34;2077788;28;20223;-73
2021/12/20 04:09:08;;;;;;;19.58;17.88;;;;;;;0.06;100.00;98717.75;2077438;28;20690;-74
2021/12/20 04:10:12;;;;;;;19.75;18.05;;;;;;;0.08;100.00;98713.06;2078627;28;20234;-73
2021/12/20 04:11:15;;;;;;;20.25;18.15;;;;;;;0.06;100.00;98723.00;2078178;28;20224;-73
2021/12/20 04:12:16;;;;;;;20.52;16.70;;;;;;;0.16;100.00;98723.16;2069654;28;20289;-72
2021/12/20 04:13:18;;;;;;;19.03;17.27;;;;;;;0.17;100.00;98704.56;2069739;28;20271;-73
2021/12/20 04:14:19;;;;;;;19.48;17.70;;;;;;;0.17;100.00;98716.88;2077942;28;20219;-73
2021/12/20 04:15:20;;;;;;;19.85;18.15;;;;;;;0.13;100.00;98716.56;2078426;28;20223;-73
2021/12/20 04:16:24;;;;;;;19.33;17.63;;;;;;;0.11;100.00;98707.38;2077892;28;20219;-73
2021/12/20 04:17:26;;;;;;;20.92;18.77;;;;;;;0.10;100.00;98714.44;2077417;28;20220;-73
2021/12/20 04:18:31;;;;;;;19.15;17.65;;;;;;;0.12;100.00;98716.81;2087379;28;20239;-73
2021/12/20 04:19:33;;;;;;;19.60;17.35;;;;;;;0.08;100.00;98711.22;2079154;28;20223;-72
2021/12/20 04:20:34;;;;;;;21.40;18.92;;;;;;;0.09;100.00;98717.28;2079207;28;20223;-72
2021/12/20 04:21:36;;;;;;;19.60;17.73;;;;;;;0.07;100.00;98714.09;2086991;28;20254;-72
2021/12/20 04:22:36;;;;;;;20.50;18.10;;;;;;;0.06;100.00;98723.00;2078874;28;20246;-75
2021/12/20 04:23:39;;;;;;;19.80;17.90;;;;;;;0.05;100.00;98716.16;2070925;28;20224;-73
2021/12/20 04:24:41;;;;;;;19.92;18.05;;;;;;;0.09;100.00;98715.47;2071073;28;20224;-73
2021/12/20 04:25:44;;;;;;;18.13;16.70;;;;;;;0.13;100.00;98718.41;2087447;28;21742;-73
2021/12/20 04:26:45;;;;;;;19.70;17.70;;;;;;;0.10;100.00;98717.06;2078893;28;20251;-72
2021/12/20 04:27:46;;;;;;;19.77;17.73;;;;;;;0.11;100.00;98713.41;2070907;28;20220;-72
2021/12/20 04:28:48;;;;;;;19.95;18.05;;;;;;;0.09;100.00;98704.97;2062890;28;20224;-72
2021/12/20 04:29:50;;;;;;;20.25;18.13;;;;;;;0.06;100.00;98723.00;2070832;28;20266;-73
2021/12/20 04:30:53;;;;;;;20.25;17.88;;;;;;;0.05;100.00;98708.31;2070768;28;20240;-75
2021/12/20 04:31:53;;;;;;;19.92;18.20;;;;;;;0.06;100.00;98712.50;2079201;28;20309;-74
2021/12/20 04:32:55;;;;;;;20.47;18.47;;;;;;;0.04;100.00;98719.81;2087452;28;20230;-73
2021/12/20 04:33:57;;;;;;;20.83;18.60;;;;;;;0.02;100.00;98712.19;2087357;28;20237;-73
2021/12/20 04:34:58;;;;;;;21.13;19.17;;;;;;;0.06;100.00;98725.63;2070959;28;20547;-73
2021/12/20 04:36:00;;;;;;;20.57;18.87;;;;;;;0.03;100.00;98731.34;2071286;28;20274;-72
2021/12/20 04:37:03;;;;;;;19.73;17.83;;;;;;;0.04;100.00;98728.47;2079106;28;20643;-73
2021/12/20 04:38:07;;;;;;;20.35;18.35;;;;;;;0.04;100.00;98725.06;2078815;28;20223;-75
2021/12/20 04:39:13;;;;;;;19.38;17.65;;;;;;;0.05;100.00;98737.16;2070767;28;20714;-73
2021/12/20 04:40:18;;;;;;;20.20;17.58;;;;;;;0.06;100.00;98728.25;2087343;28;20636;-72
2021/12/20 04:41:22;;;;;;;20.08;17.98;;;;;;;0.03;100.00;98718.22;2086473;28;20222;-73
2021/12/20 04:42:23;;;;;;;20.08;18.13;;;;;;;0.02;100.00;98733.19;2070646;28;20227;-73
2021/12/20 04:43:25;;;;;;;20.67;18.00;;;;;;;0.04;100.00;98735.56;2070897;28;20701;-72
2021/12/20 04:44:26;;;;;;;20.33;18.38;;;;;;;0.05;100.00;98745.00;2071026;28;20224;-73
2021/12/20 04:45:29;;;;;;;20.95;18.85;;;;;;;0.03;100.00;98729.53;2071055;28;20235;-74
2021/12/20 04:46:29;;;;;;;21.02;18.85;;;;;;;0.11;100.00;98738.84;2087262;28;20227;-73
2021/12/20 04:47:31;;;;;;;20.20;18.40;;;;;;;0.14;100.00;98746.22;2078801;28;20298;-73
2021/12/20 04:48:33;;;;;;;21.73;19.45;;;;;;;0.13;100.00;98739.38;2070864;28;20228;-73
2021/12/20 04:49:34;;;;;;;20.48;17.80;;;;;;;0.13;100.00;98744.63;2070850;28;20220;-73
2021/12/20 04:50:36;;;;;;;20.37;18.53;;;;;;;0.12;100.00;98743.84;2070740;28;20216;-73
2021/12/20 04:51:38;;;;;;;20.13;18.00;;;;;;;0.12;100.00;98745.66;2071280;28;20690;-75
2021/12/20 04:52:41;;;;;;;20.65;18.85;;;;;;;0.10;100.00;98748.53;2071622;28;20228;-73
2021/12/20 04:53:42;;;;;;;19.65;17.80;;;;;;;0.10;100.00;98759.03;2070740;28;20326;-73
2021/12/20 04:54:44;;;;;;;19.30;17.70;;;;;;;0.11;100.00;98746.69;2078893;28;20303;-74
2021/12/20 04:55:44;;;;;;;20.00;17.85;;;;;;;0.09;100.00;98765.31;2087175;28;20232;-73